Time;durP1;ratioP1;P1;durP2;ratioP2;P2;SDS_P1;SDS_P2;PMS_P1;PMS_P2;Temp;Humidity;BMP_temperature;BMP_pressure;BME280_temperature;BME280_humidity;BME280_pressure;Samples;Min_cycle;Max_cycle;Signal;HPM_P1;HPM_P2
2021/12/27 00:01:34;;;;;;;21.80;12.10;;;;;;;-2.89;82.91;101403.17;106140;1269;72051;-78
2021/12/27 00:04:04;;;;;;;22.40;12.50;;;;;;;-2.90;83.01;101406.41;106143;1269;68428;-79
2021/12/27 00:06:33;;;;;;;21.30;12.70;;;;;;;-2.84;83.11;101407.39;106015;1269;73695;-78
2021/12/27 00:09:02;;;;;;;21.10;12.30;;;;;;;-2.86;82.94;101405.52;106002;1272;60745;-78
2021/12/27 00:11:31;;;;;;;21.90;12.80;;;;;;;-2.84;82.75;101404.84;105960;1272;61610;-78
2021/12/27 00:14:00;;;;;;;22.60;12.70;;;;;;;-2.90;82.65;101406.75;106169;1272;74840;-77
2021/12/27 00:16:29;;;;;;;21.60;13.30;;;;;;;-2.92;82.81;101403.87;106101;1269;73143;-76
2021/12/27 00:18:59;;;;;;;23.00;12.90;;;;;;;-2.89;82.86;101406.58;105958;1271;70795;-79
2021/12/27 00:21:28;;;;;;;19.70;12.00;;;;;;;-2.93;82.80;101409.16;106176;1271;74794;-76
2021/12/27 00:23:57;;;;;;;21.90;12.30;;;;;;;-2.89;83.13;101406.73;106224;1268;59569;-77
2021/12/27 00:26:26;;;;;;;19.90;12.20;;;;;;;-2.93;83.23;101404.55;106033;1270;60017;-77
2021/12/27 00:28:55;;;;;;;19.30;11.80;;;;;;;-2.96;82.86;101403.20;106051;1272;72513;-78
2021/12/27 00:31:24;;;;;;;19.70;11.80;;;;;;;-2.96;82.93;101405.41;106298;1269;72005;-73
2021/12/27 00:33:53;;;;;;;19.10;11.00;;;;;;;-3.01;82.93;101409.53;106292;1269;68373;-78
2021/12/27 00:36:22;;;;;;;19.50;12.10;;;;;;;-2.96;82.66;101414.29;106147;1269;71212;-81
2021/12/27 00:38:51;;;;;;;19.80;11.80;;;;;;;-2.98;82.90;101411.23;106166;1269;62700;-77
2021/12/27 00:41:20;;;;;;;19.30;11.80;;;;;;;-2.89;82.82;101413.73;105980;1269;61917;-76
2021/12/27 00:43:49;;;;;;;23.20;12.70;;;;;;;-2.92;82.63;101401.30;106184;1271;72882;-77
2021/12/27 00:46:18;;;;;;;21.50;12.40;;;;;;;-2.96;82.71;101399.11;106137;1269;72588;-76
2021/12/27 00:48:47;;;;;;;19.40;11.50;;;;;;;-2.91;82.44;101394.98;106086;1269;71388;-77
2021/12/27 00:51:16;;;;;;;22.30;12.70;;;;;;;-2.89;82.10;101397.20;105915;1271;74736;-77
2021/12/27 00:53:45;;;;;;;20.20;12.70;;;;;;;-2.87;82.27;101393.60;106086;1269;62574;-79
2021/12/27 00:56:14;;;;;;;20.70;12.60;;;;;;;-2.90;82.20;101393.80;106035;1269;61672;-75
2021/12/27 00:58:42;;;;;;;22.30;12.40;;;;;;;-2.93;82.09;101396.02;105979;1269;74573;-77
2021/12/27 01:01:11;;;;;;;24.00;13.10;;;;;;;-2.96;81.93;101391.95;106194;1269;73222;-77
2021/12/27 01:03:41;;;;;;;22.40;12.40;;;;;;;-3.00;82.04;101387.89;106147;1269;69320;-78
2021/12/27 01:06:10;;;;;;;22.50;12.50;;;;;;;-2.96;82.56;101382.40;106126;1271;73216;-78
2021/12/27 01:08:39;;;;;;;20.90;12.90;;;;;;;-2.91;82.41;101376.23;106091;1269;60548;-77
2021/12/27 01:13:46;;;;;;;28.40;15.00;;;;;;;-2.86;82.50;101368.20;106160;1269;74335;-76
2021/12/27 01:16:15;;;;;;;22.70;12.20;;;;;;;-2.84;82.16;101369.55;106127;1269;70808;-76
2021/12/27 01:18:48;;;;;;;19.70;11.90;;;;;;;-2.84;81.81;101367.84;106139;1269;69599;-75
2021/12/27 01:21:22;;;;;;;21.30;12.50;;;;;;;-2.80;81.87;101371.73;106117;1269;73976;-76
2021/12/27 01:23:53;;;;;;;21.70;12.10;;;;;;;-2.79;82.05;101372.24;106169;1269;61196;-76
2021/12/27 01:26:25;;;;;;;23.00;12.40;;;;;;;-2.84;81.65;101372.11;105999;1270;61731;-76
2021/12/27 01:29:00;;;;;;;22.10;11.70;;;;;;;-2.85;82.20;101372.63;106133;1271;73394;-75
2021/12/27 01:31:29;;;;;;;24.80;13.20;;;;;;;-2.92;81.69;101370.97;106109;1269;70901;-74
2021/12/27 01:33:58;;;;;;;20.40;11.80;;;;;;;-2.87;81.59;101371.62;106108;1269;68925;-77
2021/12/27 01:36:31;;;;;;;23.50;12.00;;;;;;;-2.91;81.56;101368.05;105965;1269;72000;-76
2021/12/27 01:39:02;;;;;;;23.40;12.10;;;;;;;-2.93;81.35;101360.75;105909;1272;59803;-78
2021/12/27 01:41:32;;;;;;;22.70;11.90;;;;;;;-2.89;81.82;101357.65;105928;1269;59573;-76
2021/12/27 01:44:00;;;;;;;21.50;10.90;;;;;;;-2.92;81.69;101361.94;106095;1269;75076;-75
2021/12/27 01:46:30;;;;;;;19.30;10.30;;;;;;;-2.95;81.57;101365.36;106063;1269;73176;-74
2021/12/27 01:49:00;;;;;;;19.90;11.00;;;;;;;-3.01;81.57;101367.95;105979;1269;68436;-75
2021/12/27 01:51:31;;;;;;;24.20;11.80;;;;;;;-3.02;81.85;101366.44;106122;1269;71203;-72
2021/12/27 01:54:00;;;;;;;19.40;10.90;;;;;;;-2.98;81.70;101364.02;105939;1272;60747;-75
2021/12/27 01:56:29;;;;;;;19.00;10.70;;;;;;;-2.99;82.00;101365.05;105828;1272;59525;-72
2021/12/27 01:58:59;;;;;;;19.50;10.10;;;;;;;-2.95;81.01;101365.86;106081;1269;74748;-76
2021/12/27 02:01:28;;;;;;;19.90;10.90;;;;;;;-2.97;81.01;101359.57;105766;1271;73262;-76
2021/12/27 02:03:57;;;;;;;15.80;10.30;;;;;;;-2.91;81.64;101363.63;106031;1271;68413;-75
2021/12/27 02:06:27;;;;;;;20.80;10.20;;;;;;;-2.90;80.86;101362.44;107869;1269;70667;-76
2021/12/27 02:08:56;;;;;;;15.40;9.70;;;;;;;-2.92;80.46;101365.85;106069;1269;60685;-76
2021/12/27 02:11:26;;;;;;;19.80;10.10;;;;;;;-2.93;80.70;101370.96;106209;1269;59998;-76
2021/12/27 02:13:56;;;;;;;19.40;10.20;;;;;;;-2.98;80.64;101366.23;106183;1270;72876;-84
2021/12/27 02:16:25;;;;;;;17.80;8.90;;;;;;;-3.02;80.87;101367.78;106154;1270;69623;-77
2021/12/27 02:18:55;;;;;;;16.10;9.00;;;;;;;-2.97;80.68;101367.58;106001;1269;68404;-77
2021/12/27 02:21:24;;;;;;;16.90;9.70;;;;;;;-2.99;80.31;101369.64;105769;1272;72392;-77
2021/12/27 02:23:55;;;;;;;16.30;9.60;;;;;;;-3.00;80.24;101370.34;106012;1269;59665;-77
2021/12/27 02:26:24;;;;;;;15.80;9.20;;;;;;;-2.98;80.45;101375.42;106034;1269;60650;-76
2021/12/27 02:28:53;;;;;;;17.50;10.10;;;;;;;-2.95;80.30;101380.52;105832;1271;76212;-78
2021/12/27 02:31:22;;;;;;;15.10;8.90;;;;;;;-2.98;80.27;101378.50;105829;1269;71400;-76
2021/12/27 02:33:51;;;;;;;17.10;9.10;;;;;;;-2.99;80.62;101383.10;105989;1271;71337;-76
2021/12/27 02:36:24;;;;;;;17.80;10.40;;;;;;;-2.98;80.73;101379.85;106009;1269;74802;-78
2021/12/27 02:38:53;;;;;;;18.70;10.50;;;;;;;-2.99;80.57;101383.96;106153;1269;60767;-76
2021/12/27 02:41:22;;;;;;;17.00;9.50;;;;;;;-3.02;80.48;101388.06;106126;1268;60758;-80
2021/12/27 02:43:51;;;;;;;16.10;8.60;;;;;;;-2.97;80.69;101391.45;106001;1270;73116;-82
2021/12/27 02:46:20;;;;;;;17.90;9.30;;;;;;;-2.98;80.99;101393.50;106131;1269;69874;-78
2021/12/27 02:48:49;;;;;;;17.20;9.20;;;;;;;-3.01;80.95;101399.14;105912;1269;68760;-79
2021/12/27 02:51:19;;;;;;;15.10;8.30;;;;;;;-3.01;80.89;101400.66;106049;1269;72347;-78
2021/12/27 02:53:49;;;;;;;14.30;8.40;;;;;;;-3.03;80.73;101399.66;106114;1269;59911;-78
2021/12/27 02:56:19;;;;;;;14.50;7.80;;;;;;;-3.03;80.74;101399.67;106158;1269;59728;-78
2021/12/27 02:58:50;;;;;;;14.20;7.60;;;;;;;-3.07;80.86;101396.63;105891;1272;72795;-80
2021/12/27 03:01:22;;;;;;;15.70;8.40;;;;;;;-3.07;81.20;101394.91;105825;1269;72098;-79
2021/12/27 03:03:52;;;;;;;14.10;8.10;;;;;;;-3.04;81.02;101393.88;106043;1269;67942;-80
2021/12/27 03:06:21;;;;;;;15.30;9.00;;;;;;;-3.03;81.23;101396.08;105996;1269;70950;-78
2021/12/27 03:08:51;;;;;;;14.80;8.00;;;;;;;-3.09;81.31;101396.29;105985;1269;59772;-78
2021/12/27 03:11:20;;;;;;;13.20;8.70;;;;;;;-3.10;80.81;101392.38;106029;1270;59874;-80
2021/12/27 03:13:51;;;;;;;15.70;9.00;;;;;;;-3.12;81.14;101389.66;105986;1269;73925;-77
2021/12/27 03:16:23;;;;;;;17.30;9.60;;;;;;;-3.11;81.17;101386.06;105850;1272;72329;-76
2021/12/27 03:18:55;;;;;;;18.10;8.40;;;;;;;-3.15;81.55;101382.69;106012;1271;70497;-76
2021/12/27 03:21:29;;;;;;;17.90;9.60;;;;;;;-3.14;82.11;101374.83;106025;1269;73519;-77
2021/12/27 03:23:58;;;;;;;18.70;10.00;;;;;;;-3.06;81.92;101381.61;106096;1269;60950;-78
2021/12/27 03:26:28;;;;;;;16.20;9.00;;;;;;;-3.03;81.85;101380.40;106044;1269;59734;-78
2021/12/27 03:28:57;;;;;;;15.70;9.10;;;;;;;-3.10;81.85;101379.09;106159;1269;72866;-80
2021/12/27 03:31:26;;;;;;;16.60;9.20;;;;;;;-3.13;81.61;101375.00;106197;1269;71683;-77
2021/12/27 03:33:56;;;;;;;15.40;7.80;;;;;;;-3.13;81.72;101376.89;106042;1272;70805;-77
2021/12/27 03:36:28;;;;;;;18.10;9.60;;;;;;;-3.12;81.85;101379.77;106229;1266;73601;-78
2021/12/27 03:38:57;;;;;;;18.50;10.20;;;;;;;-3.17;82.24;101376.90;106130;1269;62185;-78
2021/12/27 03:41:26;;;;;;;18.40;11.20;;;;;;;-3.17;82.52;101377.24;106186;1269;59603;-79
2021/12/27 03:43:55;;;;;;;20.00;9.90;;;;;;;-3.15;82.73;101380.46;106113;1271;72773;-81
2021/12/27 03:46:24;;;;;;;18.00;10.00;;;;;;;-3.19;82.30;101386.27;105958;1269;70409;-80
2021/12/27 03:48:54;;;;;;;21.80;10.40;;;;;;;-3.21;82.63;101387.48;105960;1272;69677;-80
2021/12/27 03:51:23;;;;;;;19.80;9.40;;;;;;;-3.21;82.48;101396.68;105935;1269;72696;-78
2021/12/27 03:53:52;;;;;;;16.80;10.40;;;;;;;-3.26;82.38;101393.29;106084;1269;59630;-80
2021/12/27 03:56:23;;;;;;;19.80;10.90;;;;;;;-3.25;82.93;101401.82;105933;1271;59768;-77
2021/12/27 03:58:58;;;;;;;22.10;11.30;;;;;;;-3.27;82.56;101407.29;106177;1271;73099;-79
2021/12/27 04:01:29;;;;;;;29.40;11.10;;;;;;;-3.21;82.68;101401.79;106035;1269;70412;-76
2021/12/27 04:03:58;;;;;;;21.40;11.00;;;;;;;-3.24;83.11;101395.52;106070;1269;68494;-77
2021/12/27 04:06:28;;;;;;;21.70;11.30;;;;;;;-3.21;82.64;101398.05;106205;1269;72572;-77
2021/12/27 04:08:57;;;;;;;25.00;11.50;;;;;;;-3.25;82.66;101402.84;106211;1269;61428;-78
2021/12/27 04:11:26;;;;;;;23.90;11.30;;;;;;;-3.33;83.03;101403.55;106215;1267;61189;-78
2021/12/27 04:14:02;;;;;;;21.70;11.50;;;;;;;-3.32;83.07;101400.66;106163;1270;74275;-79
2021/12/27 04:16:31;;;;;;;21.40;11.40;;;;;;;-3.25;83.28;101409.98;106006;1269;73131;-78
2021/12/27 04:19:00;;;;;;;19.10;11.10;;;;;;;-3.23;83.17;101414.41;106223;1266;68488;-77
2021/12/27 04:21:30;;;;;;;21.80;10.10;;;;;;;-3.28;83.05;101419.36;106130;1269;74319;-78
2021/12/27 04:23:59;;;;;;;24.10;11.80;;;;;;;-3.23;83.14;101422.25;106110;1271;60339;-78
2021/12/27 04:26:28;;;;;;;18.20;10.60;;;;;;;-3.23;83.15;101419.52;106141;1269;59557;-79
2021/12/27 04:29:00;;;;;;;19.90;9.90;;;;;;;-3.19;82.82;101418.99;106090;1269;73196;-78
2021/12/27 04:31:30;;;;;;;18.60;10.60;;;;;;;-3.15;82.62;101416.59;106071;1269;71603;-79
2021/12/27 04:33:59;;;;;;;19.50;10.10;;;;;;;-3.16;83.20;101426.14;106125;1269;69915;-78
2021/12/27 04:36:27;;;;;;;20.60;10.00;;;;;;;-3.20;82.72;101420.88;105920;1272;74423;-79
2021/12/27 04:38:56;;;;;;;23.30;10.80;;;;;;;-3.24;82.88;101423.28;106074;1269;61750;-78
2021/12/27 04:41:25;;;;;;;21.40;10.60;;;;;;;-3.26;83.12;101421.23;106034;1269;59583;-80
2021/12/27 04:43:54;;;;;;;19.40;11.10;;;;;;;-3.26;82.77;101422.25;106047;1269;72919;-81
2021/12/27 04:46:25;;;;;;;21.50;10.90;;;;;;;-3.27;82.80;101420.56;105843;1271;72618;-80
2021/12/27 04:48:55;;;;;;;17.30;10.20;;;;;;;-3.32;82.96;101422.28;105910;1268;69171;-80
2021/12/27 04:51:24;;;;;;;17.50;10.20;;;;;;;-3.37;83.39;101419.75;105886;1270;72041;-80
2021/12/27 04:53:55;;;;;;;17.20;8.90;;;;;;;-3.41;83.35;101420.27;106048;1269;59005;-79
2021/12/27 04:56:24;;;;;;;21.10;10.80;;;;;;;-3.43;83.30;101423.86;105860;1269;60593;-78
2021/12/27 04:58:52;;;;;;;22.30;12.60;;;;;;;-3.48;83.67;101420.45;105894;1269;75506;-78
2021/12/27 05:01:22;;;;;;;18.20;10.90;;;;;;;-3.49;83.71;101418.09;106114;1269;73251;-80
2021/12/27 05:03:52;;;;;;;19.00;9.60;;;;;;;-3.45;83.27;101415.70;105925;1268;72599;-80
2021/12/27 05:06:21;;;;;;;15.40;8.90;;;;;;;-3.43;83.53;101414.84;106085;1269;73131;-81
2021/12/27 05:08:53;;;;;;;18.80;9.60;;;;;;;-3.45;83.42;101419.27;105914;1272;62826;-80
2021/12/27 05:11:22;;;;;;;18.60;9.60;;;;;;;-3.45;83.66;101416.89;106140;1269;60224;-79
2021/12/27 05:13:51;;;;;;;20.30;9.70;;;;;;;-3.37;83.52;101417.36;106111;1270;72543;-82
2021/12/27 05:16:20;;;;;;;20.60;9.30;;;;;;;-3.41;83.24;101421.14;105910;1269;70785;-79
2021/12/27 05:18:49;;;;;;;13.50;8.20;;;;;;;-3.43;83.36;101425.56;106044;1266;68226;-76
2021/12/27 05:21:18;;;;;;;15.40;7.60;;;;;;;-3.45;83.32;101430.69;105392;1269;629763;-77
2021/12/27 05:23:47;;;;;;;13.90;7.90;;;;;;;-3.43;83.05;101431.52;105890;1271;62228;-77
2021/12/27 05:26:17;;;;;;;13.60;7.50;;;;;;;-3.49;82.77;101427.80;106124;1269;58952;-82
2021/12/27 05:28:46;;;;;;;13.90;7.30;;;;;;;-3.45;83.41;101430.85;105890;1269;75410;-80
2021/12/27 05:31:15;;;;;;;11.80;7.10;;;;;;;-3.45;82.81;101434.27;106084;1269;70010;-78
2021/12/27 05:33:45;;;;;;;13.50;6.90;;;;;;;-3.42;82.69;101436.30;106045;1268;70693;-78
2021/12/27 05:36:14;;;;;;;13.00;7.10;;;;;;;-3.50;82.71;101436.31;106099;1269;72576;-79
2021/12/27 05:38:43;;;;;;;15.60;6.50;;;;;;;-3.45;82.79;101427.80;106014;1269;60145;-71
2021/12/27 05:41:12;;;;;;;16.60;7.20;;;;;;;-3.51;82.69;101431.37;106116;1269;60852;-79
2021/12/27 05:43:41;;;;;;;12.50;6.90;;;;;;;-3.51;82.64;101436.66;105921;1268;75386;-79
2021/12/27 05:46:10;;;;;;;12.30;7.00;;;;;;;-3.47;82.04;101437.50;106104;1269;70070;-78
2021/12/27 05:48:40;;;;;;;11.10;6.60;;;;;;;-3.47;82.36;101432.22;105965;1269;70601;-79
2021/12/27 05:51:09;;;;;;;13.90;5.70;;;;;;;-3.52;81.81;101430.20;106194;1269;72553;-78
2021/12/27 05:53:38;;;;;;;11.60;5.70;;;;;;;-3.54;81.88;101431.21;106137;1269;62190;-77
2021/12/27 05:56:06;;;;;;;13.20;6.40;;;;;;;-3.51;82.07;101437.86;106032;1268;61736;-80
2021/12/27 05:58:35;;;;;;;12.00;6.00;;;;;;;-3.57;81.04;101438.04;106166;1269;75581;-78
2021/12/27 06:01:04;;;;;;;13.20;6.80;;;;;;;-3.54;81.29;101437.35;105786;1269;73177;-77
2021/12/27 06:03:34;;;;;;;11.30;5.70;;;;;;;-3.55;81.95;101432.92;105853;1269;71500;-78
2021/12/27 06:06:03;;;;;;;12.00;5.70;;;;;;;-3.48;81.69;101432.05;105927;1268;72128;-78
2021/12/27 06:08:32;;;;;;;13.40;6.10;;;;;;;-3.52;81.45;101434.11;105789;1266;59578;-78
2021/12/27 06:11:01;;;;;;;9.90;5.30;;;;;;;-3.47;81.70;101436.48;105935;1268;59635;-76
2021/12/27 06:13:34;;;;;;;11.50;5.10;;;;;;;-3.47;81.06;101434.77;105903;1269;74869;-79
2021/12/27 06:16:04;;;;;;;8.60;4.30;;;;;;;-3.48;81.12;101433.23;105658;1272;71453;-80
2021/12/27 06:18:32;;;;;;;8.40;4.40;;;;;;;-3.49;81.27;101435.46;105925;1269;70416;-79
2021/12/27 06:21:04;;;;;;;9.70;5.10;;;;;;;-3.49;81.24;101440.73;105754;1269;73664;-81
2021/12/27 06:23:36;;;;;;;7.50;4.70;;;;;;;-3.53;81.36;101448.58;105945;1269;60315;-79
2021/12/27 06:26:05;;;;;;;8.80;4.10;;;;;;;-3.50;81.20;101451.65;105884;1269;62870;-78
2021/12/27 06:28:34;;;;;;;7.90;4.50;;;;;;;-3.51;80.66;101449.42;105730;1271;73956;-81
2021/12/27 06:31:03;;;;;;;8.80;4.60;;;;;;;-3.45;81.11;101450.61;105887;1268;71135;-78
2021/12/27 06:33:32;;;;;;;11.10;6.00;;;;;;;-3.41;80.95;101457.74;105546;1271;69573;-78
2021/12/27 06:36:03;;;;;;;9.50;5.50;;;;;;;-3.43;80.63;101454.85;105979;1267;73924;-78
2021/12/27 06:38:32;;;;;;;11.60;5.90;;;;;;;-3.38;81.36;101453.83;106013;1266;62549;-82
2021/12/27 06:41:02;;;;;;;9.30;4.30;;;;;;;-3.34;80.54;101471.52;106089;1268;59477;-84
2021/12/27 06:43:31;;;;;;;13.70;5.20;;;;;;;-3.35;79.99;101481.23;106060;1268;70663;-78
2021/12/27 06:46:02;;;;;;;9.80;4.30;;;;;;;-3.41;80.45;101473.07;105869;1271;70393;-82
2021/12/27 06:48:31;;;;;;;10.50;4.60;;;;;;;-3.34;80.32;101467.77;106024;1269;68744;-78
2021/12/27 06:51:00;;;;;;;8.30;4.20;;;;;;;-3.34;79.85;101462.16;105934;1269;71399;-79
2021/12/27 06:53:31;;;;;;;7.20;4.00;;;;;;;-3.42;79.57;101460.13;105975;1269;60488;-79
2021/12/27 06:56:02;;;;;;;9.80;4.80;;;;;;;-3.44;79.69;101456.56;105950;1269;61347;-78
2021/12/27 06:58:31;;;;;;;8.00;4.00;;;;;;;-3.44;79.93;101450.42;106036;1269;74157;-80
2021/12/27 07:01:00;;;;;;;11.60;4.60;;;;;;;-3.38;80.17;101443.77;106132;1269;71130;-78
2021/12/27 07:03:30;;;;;;;10.20;4.20;;;;;;;-3.36;79.87;101445.47;106140;1268;69469;-81
2021/12/27 07:05:59;;;;;;;8.50;4.60;;;;;;;-3.41;79.53;101444.80;106174;1265;73094;-81
2021/12/27 07:08:28;;;;;;;7.80;4.40;;;;;;;-3.36;80.03;101446.99;105917;1269;59611;-80
2021/12/27 07:10:57;;;;;;;12.90;5.00;;;;;;;-3.32;80.09;101453.97;106159;1269;59772;-79
2021/12/27 07:13:26;;;;;;;10.10;4.80;;;;;;;-3.27;80.26;101452.94;107465;1269;73220;-82
2021/12/27 07:15:55;;;;;;;8.40;5.00;;;;;;;-3.24;79.76;101445.25;106188;1268;69884;-80
2021/12/27 07:18:24;;;;;;;10.10;5.10;;;;;;;-3.21;79.59;101442.17;106176;1269;68831;-79
2021/12/27 07:20:54;;;;;;;11.10;4.90;;;;;;;-3.26;80.11;101439.64;106039;1268;71216;-82
2021/12/27 07:23:23;;;;;;;12.90;6.50;;;;;;;-3.19;79.34;101450.52;105927;1268;62215;-82
2021/12/27 07:25:52;;;;;;;11.60;5.30;;;;;;;-3.18;79.42;101456.14;106048;1271;61597;-81
2021/12/27 07:28:21;;;;;;;9.40;4.70;;;;;;;-3.26;79.52;101459.73;105903;1269;72850;-82
2021/12/27 07:30:50;;;;;;;9.20;4.60;;;;;;;-3.12;79.12;101460.20;105894;1269;70878;-78
2021/12/27 07:33:20;;;;;;;11.10;4.30;;;;;;;-3.14;79.11;101453.05;106004;1268;71594;-81
2021/12/27 07:35:48;;;;;;;10.00;4.30;;;;;;;-3.12;79.28;101462.59;105702;1269;74767;-73
2021/12/27 07:38:18;;;;;;;7.70;4.10;;;;;;;-3.12;79.04;101464.80;105823;1272;61250;-79
2021/12/27 07:40:48;;;;;;;8.10;4.90;;;;;;;-3.13;79.14;101459.02;105770;1270;62386;-78
2021/12/27 07:43:17;;;;;;;7.90;4.30;;;;;;;-3.22;79.00;101455.48;105760;1271;76012;-79
2021/12/27 07:45:46;;;;;;;11.00;4.30;;;;;;;-3.25;79.03;101448.82;105799;1268;73303;-80
2021/12/27 07:48:15;;;;;;;8.50;4.40;;;;;;;-3.28;79.48;101438.64;106250;1268;70524;-84
2021/12/27 07:50:44;;;;;;;6.20;3.20;;;;;;;-3.14;79.52;101441.81;105871;1268;71988;-83
2021/12/27 07:53:14;;;;;;;8.70;4.70;;;;;;;-3.12;79.29;101435.15;106379;1269;59790;-84
2021/12/27 07:55:43;;;;;;;12.30;5.30;;;;;;;-3.05;78.94;101440.92;106675;1269;61723;-84
2021/12/27 07:58:12;;;;;;;9.20;4.70;;;;;;;-3.04;78.85;101433.41;107046;1269;73118;-86
2021/12/27 08:00:42;;;;;;;10.00;5.40;;;;;;;-2.95;78.29;101432.85;107349;1268;70827;-86
2021/12/27 08:03:11;;;;;;;11.10;5.40;;;;;;;-2.86;78.70;101434.84;106943;1269;67990;-85
2021/12/27 08:05:40;;;;;;;11.60;5.40;;;;;;;-2.75;78.75;101438.38;106076;1269;72012;-84
2021/12/27 08:08:09;;;;;;;14.50;7.10;;;;;;;-2.82;78.23;101437.55;106253;1270;59785;-89
2021/12/27 08:10:43;;;;;;;8.50;4.70;;;;;;;-2.83;78.40;101433.81;106116;1269;61960;-89
2021/12/27 08:13:12;;;;;;;8.90;4.50;;;;;;;-2.79;78.13;101432.42;105891;1268;73989;-87
2021/12/27 08:15:41;;;;;;;9.40;5.40;;;;;;;-2.89;78.09;101435.20;106249;1266;70202;-88
2021/12/27 08:18:10;;;;;;;9.10;5.10;;;;;;;-2.97;79.06;101443.27;105947;1269;67011;-86
2021/12/27 08:20:39;;;;;;;12.10;5.20;;;;;;;-2.96;78.43;101448.71;106092;1269;70193;-88
2021/12/27 08:23:08;;;;;;;7.70;4.90;;;;;;;-2.93;78.60;101447.84;106178;1269;59583;-85
2021/12/27 08:25:38;;;;;;;9.20;4.40;;;;;;;-2.97;78.14;101440.36;106174;1269;59833;-83
2021/12/27 08:28:07;;;;;;;12.40;4.50;;;;;;;-2.99;78.25;101437.31;106206;1268;74484;-83
2021/12/27 08:30:40;;;;;;;10.30;5.10;;;;;;;-2.90;78.24;101433.00;106000;1268;70837;-78
2021/12/27 08:33:09;;;;;;;9.70;5.10;;;;;;;-2.98;77.94;101436.10;106154;1269;69105;-80
2021/12/27 08:35:40;;;;;;;13.80;6.10;;;;;;;-2.93;77.65;101430.29;105832;1269;72081;-78
2021/12/27 08:38:09;;;;;;;14.00;5.70;;;;;;;-2.89;77.84;101428.05;106141;1269;60529;-79
2021/12/27 08:40:38;;;;;;;10.20;5.10;;;;;;;-2.89;77.53;101425.15;106051;1269;61765;-77
2021/12/27 08:43:07;;;;;;;9.10;5.30;;;;;;;-2.77;77.38;101428.15;106111;1269;72063;-78
2021/12/27 08:45:37;;;;;;;14.50;6.00;;;;;;;-2.64;77.36;101429.44;106096;1269;71607;-84
2021/12/27 08:48:07;;;;;;;9.50;5.20;;;;;;;-2.78;76.87;101424.41;106084;1269;69462;-79
2021/12/27 08:50:37;;;;;;;9.10;5.30;;;;;;;-2.74;77.04;101427.27;106071;1269;73895;-76
2021/12/27 08:53:07;;;;;;;10.10;5.20;;;;;;;-2.71;76.94;101424.20;105962;1269;61899;-78
2021/12/27 08:55:37;;;;;;;17.40;7.10;;;;;;;-2.71;77.27;101419.59;105920;1268;59630;-77
2021/12/27 08:58:07;;;;;;;13.30;5.90;;;;;;;-2.74;76.75;101424.39;106075;1269;72485;-77
2021/12/27 09:00:36;;;;;;;12.20;6.10;;;;;;;-2.54;76.89;101421.86;106086;1269;70894;-80
2021/12/27 09:03:05;;;;;;;12.60;6.30;;;;;;;-2.63;76.48;101418.34;105814;1268;69624;-78
2021/12/27 09:05:34;;;;;;;14.60;6.20;;;;;;;-2.58;76.72;101416.44;105817;1268;73995;-78
2021/12/27 09:08:04;;;;;;;13.40;7.70;;;;;;;-2.57;76.58;101414.89;105742;1272;61694;-79
2021/12/27 09:10:33;;;;;;;14.00;7.10;;;;;;;-2.49;76.58;101410.40;105803;1272;61463;-79
2021/12/27 09:13:03;;;;;;;15.40;7.50;;;;;;;-2.47;76.40;101401.35;105915;1269;72996;-79
2021/12/27 09:15:33;;;;;;;12.60;7.50;;;;;;;-2.52;76.69;101391.15;105754;1271;71881;-74
2021/12/27 09:18:02;;;;;;;12.10;7.10;;;;;;;-2.43;76.78;101385.80;105868;1271;71149;-83
2021/12/27 09:20:31;;;;;;;15.20;8.10;;;;;;;-2.54;76.79;101380.94;105958;1266;71878;-82
2021/12/27 09:23:00;;;;;;;11.30;6.10;;;;;;;-2.48;76.30;101380.71;105708;1272;60605;-86
2021/12/27 09:25:29;;;;;;;13.40;7.60;;;;;;;-2.52;76.19;101380.22;105983;1268;59718;-84
2021/12/27 09:27:58;;;;;;;11.50;6.90;;;;;;;-2.61;76.37;101375.52;106121;1269;72858;-84
2021/12/27 09:30:27;;;;;;;12.00;6.50;;;;;;;-2.55;76.40;101369.85;106007;1270;71144;-85
2021/12/27 09:32:57;;;;;;;12.20;6.50;;;;;;;-2.56;76.18;101373.45;105742;1272;71268;-81
2021/12/27 09:35:26;;;;;;;13.70;8.10;;;;;;;-2.49;76.30;101369.45;106098;1269;73589;-84
2021/12/27 09:37:56;;;;;;;12.10;6.00;;;;;;;-2.62;75.90;101361.38;106186;1269;60288;-81
2021/12/27 09:40:26;;;;;;;10.80;6.30;;;;;;;-2.58;75.70;101365.27;105965;1269;60331;-78
2021/12/27 09:42:56;;;;;;;13.20;6.90;;;;;;;-2.46;75.41;101365.85;105890;1268;75057;-84
2021/12/27 09:45:25;;;;;;;14.10;7.40;;;;;;;-2.33;75.04;101364.38;105979;1269;72724;-81
2021/12/27 09:47:54;;;;;;;11.90;6.70;;;;;;;-2.19;75.84;101368.17;106105;1268;70020;-82
2021/12/27 09:50:38;;;;;;;13.10;6.20;;;;;;;-2.15;75.38;101369.51;105894;1268;74636;-82
2021/12/27 09:53:08;;;;;;;14.80;7.10;;;;;;;-2.20;74.90;101370.75;106069;1269;60237;-83
2021/12/27 09:55:51;;;;;;;12.80;6.80;;;;;;;-2.23;74.89;101370.27;105844;1271;62428;-82
2021/12/27 09:58:20;;;;;;;15.70;7.10;;;;;;;-2.29;75.01;101369.63;106004;1269;73341;-84
2021/12/27 10:00:49;;;;;;;14.00;6.70;;;;;;;-2.38;74.86;101364.60;105663;1269;70436;-80
2021/12/27 10:03:18;;;;;;;9.90;5.70;;;;;;;-2.43;75.57;101357.13;105944;1268;68122;-76
2021/12/27 10:05:47;;;;;;;11.90;5.90;;;;;;;-2.33;74.76;101348.69;105667;1271;71284;-75
2021/12/27 10:08:18;;;;;;;9.90;5.20;;;;;;;-2.39;74.48;101344.98;105869;1269;61897;-78
2021/12/27 10:10:47;;;;;;;10.20;4.90;;;;;;;-2.47;74.95;101343.00;105858;1269;60654;-76
2021/12/27 10:13:17;;;;;;;12.40;6.50;;;;;;;-2.46;74.91;101344.71;105959;1269;75275;-78
2021/12/27 10:15:47;;;;;;;8.20;4.70;;;;;;;-2.47;74.86;101346.92;105856;1267;72678;-75
2021/12/27 10:18:17;;;;;;;8.90;5.00;;;;;;;-2.54;73.73;101347.84;106053;1267;71074;-75
2021/12/27 10:20:46;;;;;;;10.10;5.70;;;;;;;-2.53;74.79;101341.52;106053;1269;71820;-79
2021/12/27 10:23:19;;;;;;;10.10;5.00;;;;;;;-2.48;74.64;101338.07;106149;1268;58959;-77
2021/12/27 10:25:50;;;;;;;;;;;;;;;-2.35;74.71;101330.27;105922;1269;59624;-76
2021/12/27 10:28:26;;;;;;;9.20;4.90;;;;;;;-2.40;74.92;101329.81;105985;1268;75169;-77
2021/12/27 10:31:03;;;;;;;11.30;5.30;;;;;;;-2.30;75.01;101321.70;105947;1268;73682;-76
2021/12/27 10:33:33;;;;;;;10.80;5.20;;;;;;;-2.14;74.56;101314.54;105927;1268;71233;-76
2021/12/27 10:36:03;;;;;;;11.40;5.80;;;;;;;-2.12;74.10;101302.23;105872;1269;73090;-79
2021/12/27 10:38:41;;;;;;;12.60;6.00;;;;;;;-2.13;74.47;101293.72;106071;1269;60077;-78
2021/12/27 10:41:11;;;;;;;10.00;6.70;;;;;;;-2.22;74.71;101294.31;106002;1269;58852;-73
2021/12/27 10:43:45;;;;;;;11.50;6.20;;;;;;;-2.22;74.89;101291.25;105907;1269;72999;-75
2021/12/27 10:46:33;;;;;;;8.70;5.40;;;;;;;-2.16;75.54;101288.80;106109;1267;70914;-79
2021/12/27 10:49:02;;;;;;;8.80;4.60;;;;;;;-2.07;74.85;101287.85;106160;1268;70697;-78
2021/12/27 10:51:31;;;;;;;10.40;5.10;;;;;;;-2.21;73.92;101288.34;106009;1270;74805;-78
2021/12/27 10:54:08;;;;;;;10.50;4.90;;;;;;;-2.25;74.67;101287.02;106012;1268;59586;-77
2021/12/27 10:56:54;;;;;;;9.20;5.50;;;;;;;-2.22;75.10;101284.75;105938;1268;61382;-75
2021/12/27 10:59:23;;;;;;;8.80;5.40;;;;;;;-2.34;75.36;101285.73;105952;1271;73088;-76
2021/12/27 11:01:53;;;;;;;7.90;4.90;;;;;;;-2.40;75.50;101284.27;105885;1269;71518;-77
2021/12/27 11:04:22;;;;;;;10.40;5.50;;;;;;;-2.26;75.70;101280.20;105909;1271;68354;-75
2021/12/27 11:06:54;;;;;;;8.70;5.40;;;;;;;-2.31;75.66;101272.21;105731;1271;72360;-74
2021/12/27 11:09:24;;;;;;;8.20;4.60;;;;;;;-2.29;75.20;101265.73;105958;1269;62147;-80
2021/12/27 11:11:54;;;;;;;8.40;5.20;;;;;;;-2.15;75.60;101258.58;105837;1268;60532;-81
2021/12/27 11:14:23;;;;;;;9.50;5.20;;;;;;;-2.17;75.02;101255.88;105806;1269;73724;-81
2021/12/27 11:16:54;;;;;;;10.60;4.90;;;;;;;-2.27;75.34;101256.15;105968;1268;70121;-79
2021/12/27 11:19:23;;;;;;;8.00;4.30;;;;;;;-2.46;76.00;101259.76;105642;1270;69124;-79
2021/12/27 11:21:55;;;;;;;7.30;4.50;;;;;;;-2.54;76.09;101254.54;105881;1269;72917;-77
2021/12/27 11:24:23;;;;;;;8.80;4.60;;;;;;;-2.49;75.89;101250.91;105708;1271;60955;-80